Airfield :
LOGIN :

Register | Disclaimer

   EN    FR    IT 

 










Legend :    VFR   Marginal VFR   IFR   Intensive IFR   Very Intensive IFR
Visi :
Ceiling :
>= 8 km
>= 3000ft
5 to 8 km
1000 to 3000 ft
1500m to 5 km
500 to 1000 ft
800 to 1500m
200 to 500 ft
< 800m
< 200 ft
Symbols :   Thunderstorms  Fog  Heavy snow  Heavy precipitations  Wind > 20 kt
SIGMETs :     Misc.  Thunderstorms  Icing  Turbulence  Mountain Waves  Volcanic Ashes







- Airport Elevation : 230 ft
- IATA code : VAR


LBWN - Varna

CURRENT METAR :
  • 210900Z 14008KT CAVOK 23/14 Q1011 NOSIG

EXPIRED METARs :
  • 210830Z 15008KT 110V180 CAVOK 23/15 Q1011 NOSIG
  • 210800Z 15007KT 110V180 CAVOK 22/13 Q1012 NOSIG
  • 210730Z VRB04KT CAVOK 22/13 Q1012 BECMG 11014KT
  • 210700Z 14004KT 100V200 CAVOK 21/14 Q1012 BECMG 11014KT
  • 210630Z 19003KT 100V250 CAVOK 21/13 Q1012 NOSIG

TAF TAF LBWN
Valid from the 21 at 06:00 until the 22 at 06:00 UTC


210500Z 2106/2206 VRB04KT 9999 SCT045
BECMG 2107/2109 12012KT
TEMPO 2111/2119 VRB15G25KT 3000 TSRA SCT030CB BKN040
BECMG 2119/2120 28010KT
No reported NOTAMs for that airfield.



MET'MAP, your aeronautical weather chart ! - Copyright ORBIFLY December 2007 - Disclaimer

ORBIFLY MET'MAP TEAM :

Programming & Development : Alexandra Zaïnal
Concept & Development : Baudouin d'Aumeries
Co-Development & Prog : Marc-Olivier Méhu
Technical & hardware support : Manuel Goepfert

Contact : metmap@orbifly.com




SOURCES & CREDITS :

   NOAA